sensor_id;sensor_type;location;lat;lon;timestamp;pressure;altitude;pressure_sealevel;temperature;humidity
11912;BME280;6016;41.928;25.556;2023-05-24T00:01:01;98801.91;;;17.38;79.60
11912;BME280;6016;41.928;25.556;2023-05-24T00:03:28;98800.63;;;17.34;79.51
11912;BME280;6016;41.928;25.556;2023-05-24T00:05:59;98768.91;;;17.18;79.85
11912;BME280;6016;41.928;25.556;2023-05-24T00:08:27;98764.38;;;17.18;79.60
11912;BME280;6016;41.928;25.556;2023-05-24T00:10:54;98793.25;;;17.36;79.66
11912;BME280;6016;41.928;25.556;2023-05-24T00:13:21;98788.75;;;17.37;80.11
11912;BME280;6016;41.928;25.556;2023-05-24T00:15:47;98789.16;;;17.34;80.05
11912;BME280;6016;41.928;25.556;2023-05-24T00:18:14;98756.97;;;17.13;79.61
11912;BME280;6016;41.928;25.556;2023-05-24T00:20:42;98777.06;;;17.16;80.22
11912;BME280;6016;41.928;25.556;2023-05-24T00:23:09;98728.84;;;16.89;80.19
11912;BME280;6016;41.928;25.556;2023-05-24T00:25:37;98783.19;;;17.10;80.11
11912;BME280;6016;41.928;25.556;2023-05-24T00:28:04;98800.63;;;17.34;80.04
11912;BME280;6016;41.928;25.556;2023-05-24T00:30:31;98797.31;;;17.32;79.75
11912;BME280;6016;41.928;25.556;2023-05-24T00:32:57;98772.38;;;17.18;79.56
11912;BME280;6016;41.928;25.556;2023-05-24T00:35:24;98754.16;;;17.00;79.88
11912;BME280;6016;41.928;25.556;2023-05-24T00:37:51;98704.47;;;16.70;79.70
11912;BME280;6016;41.928;25.556;2023-05-24T00:40:18;98777.06;;;17.16;80.04
11912;BME280;6016;41.928;25.556;2023-05-24T00:42:46;98800.16;;;17.30;79.88
11912;BME280;6016;41.928;25.556;2023-05-24T00:45:13;98802.22;;;17.28;79.77
11912;BME280;6016;41.928;25.556;2023-05-24T00:47:40;98818.19;;;17.28;80.20
11912;BME280;6016;41.928;25.556;2023-05-24T00:50:08;98804.25;;;17.26;80.35
11912;BME280;6016;41.928;25.556;2023-05-24T00:52:37;98806.09;;;17.26;80.26
11912;BME280;6016;41.928;25.556;2023-05-24T00:55:05;98812.63;;;17.23;80.11
11912;BME280;6016;41.928;25.556;2023-05-24T00:57:33;98801.38;;;17.06;80.48
11912;BME280;6016;41.928;25.556;2023-05-24T01:00:03;98799.69;;;17.20;80.47
11912;BME280;6016;41.928;25.556;2023-05-24T01:02:30;98804.19;;;17.20;80.70
11912;BME280;6016;41.928;25.556;2023-05-24T01:04:57;98802.91;;;17.15;81.00
11912;BME280;6016;41.928;25.556;2023-05-24T01:07:30;98787.81;;;17.01;80.55
11912;BME280;6016;41.928;25.556;2023-05-24T01:10:07;98808.25;;;17.15;80.45
11912;BME280;6016;41.928;25.556;2023-05-24T01:12:53;98812.97;;;16.98;80.78
11912;BME280;6016;41.928;25.556;2023-05-24T01:15:32;98642.03;;;16.14;80.06
11912;BME280;6016;41.928;25.556;2023-05-24T01:18:06;98800.75;;;17.04;81.46
11912;BME280;6016;41.928;25.556;2023-05-24T01:20:33;98799.28;;;17.01;81.06
11912;BME280;6016;41.928;25.556;2023-05-24T01:23:17;98746.09;;;16.71;80.70
11912;BME280;6016;41.928;25.556;2023-05-24T01:26:07;98642.97;;;16.07;80.58
11912;BME280;6016;41.928;25.556;2023-05-24T01:28:43;98754.06;;;16.71;80.89
11912;BME280;6016;41.928;25.556;2023-05-24T01:31:14;98796.53;;;16.95;80.64
11912;BME280;6016;41.928;25.556;2023-05-24T01:33:41;98613.84;;;15.68;80.71
11912;BME280;6016;41.928;25.556;2023-05-24T01:36:08;98679.09;;;16.16;80.81
11912;BME280;6016;41.928;25.556;2023-05-24T01:38:35;98647.50;;;15.91;80.66
11912;BME280;6016;41.928;25.556;2023-05-24T01:41:06;98780.25;;;16.68;80.70
11912;BME280;6016;41.928;25.556;2023-05-24T01:43:39;98800.31;;;16.85;81.00
11912;BME280;6016;41.928;25.556;2023-05-24T01:46:14;98775.09;;;16.66;81.03
11912;BME280;6016;41.928;25.556;2023-05-24T01:48:53;98800.31;;;16.85;80.79
11912;BME280;6016;41.928;25.556;2023-05-24T01:51:31;98741.72;;;16.49;80.54
11912;BME280;6016;41.928;25.556;2023-05-24T01:54:03;98704.78;;;16.24;80.19
11912;BME280;6016;41.928;25.556;2023-05-24T01:56:32;98803.81;;;16.86;80.44
11912;BME280;6016;41.928;25.556;2023-05-24T01:59:01;98799.94;;;16.88;80.60
11912;BME280;6016;41.928;25.556;2023-05-24T02:01:30;98798.94;;;16.90;79.86
11912;BME280;6016;41.928;25.556;2023-05-24T02:03:58;98753.09;;;16.57;80.36
11912;BME280;6016;41.928;25.556;2023-05-24T02:06:24;98798.66;;;16.84;80.05
11912;BME280;6016;41.928;25.556;2023-05-24T02:08:51;98802.16;;;16.85;81.07
11912;BME280;6016;41.928;25.556;2023-05-24T02:11:18;98803.34;;;16.82;80.57
11912;BME280;6016;41.928;25.556;2023-05-24T02:13:45;98803.75;;;16.79;80.58
11912;BME280;6016;41.928;25.556;2023-05-24T02:16:12;98808.22;;;16.79;80.69
11912;BME280;6016;41.928;25.556;2023-05-24T02:18:40;98735.00;;;16.16;80.26
11912;BME280;6016;41.928;25.556;2023-05-24T02:21:09;98820.28;;;16.59;80.34
11912;BME280;6016;41.928;25.556;2023-05-24T02:23:36;98796.72;;;16.56;80.92
11912;BME280;6016;41.928;25.556;2023-05-24T02:26:03;98764.06;;;16.33;81.34
11912;BME280;6016;41.928;25.556;2023-05-24T02:28:30;98719.03;;;16.16;80.53
11912;BME280;6016;41.928;25.556;2023-05-24T02:30:56;98813.94;;;16.76;81.03
11912;BME280;6016;41.928;25.556;2023-05-24T02:33:23;98817.44;;;16.76;81.11
11912;BME280;6016;41.928;25.556;2023-05-24T02:35:52;98821.28;;;16.73;80.64
11912;BME280;6016;41.928;25.556;2023-05-24T02:38:18;98822.69;;;16.69;80.10
11912;BME280;6016;41.928;25.556;2023-05-24T02:40:45;98794.59;;;16.37;80.04
11912;BME280;6016;41.928;25.556;2023-05-24T02:43:12;98818.56;;;16.67;80.61
11912;BME280;6016;41.928;25.556;2023-05-24T02:45:39;98701.22;;;15.86;80.04
11912;BME280;6016;41.928;25.556;2023-05-24T02:48:05;98806.72;;;16.39;80.17
11912;BME280;6016;41.928;25.556;2023-05-24T02:50:32;98632.81;;;15.35;80.37
11912;BME280;6016;41.928;25.556;2023-05-24T02:53:02;98832.34;;;16.55;80.29
11912;BME280;6016;41.928;25.556;2023-05-24T02:55:29;98827.00;;;16.55;80.74
11912;BME280;6016;41.928;25.556;2023-05-24T02:57:56;98822.53;;;16.56;80.74
11912;BME280;6016;41.928;25.556;2023-05-24T03:00:23;98828.03;;;16.54;80.82
11912;BME280;6016;41.928;25.556;2023-05-24T03:02:50;98825.19;;;16.56;80.67
11912;BME280;6016;41.928;25.556;2023-05-24T03:05:17;98830.84;;;16.53;80.03
11912;BME280;6016;41.928;25.556;2023-05-24T03:07:43;98798.31;;;16.21;79.76
11912;BME280;6016;41.928;25.556;2023-05-24T03:10:12;98831.41;;;16.48;80.69
11912;BME280;6016;41.928;25.556;2023-05-24T03:12:38;98622.34;;;15.18;80.00
11912;BME280;6016;41.928;25.556;2023-05-24T03:15:07;98832.44;;;16.47;79.85
11912;BME280;6016;41.928;25.556;2023-05-24T03:17:33;98823.16;;;16.43;79.35
11912;BME280;6016;41.928;25.556;2023-05-24T03:20:00;98824.38;;;16.25;79.33
11912;BME280;6016;41.928;25.556;2023-05-24T03:22:27;98819.56;;;16.36;79.82
11912;BME280;6016;41.928;25.556;2023-05-24T03:24:54;98756.72;;;15.74;79.47
11912;BME280;6016;41.928;25.556;2023-05-24T03:27:22;98822.16;;;16.44;79.18
11912;BME280;6016;41.928;25.556;2023-05-24T03:29:49;98823.00;;;16.44;78.75
11912;BME280;6016;41.928;25.556;2023-05-24T03:32:16;98820.25;;;16.38;78.92
11912;BME280;6016;41.928;25.556;2023-05-24T03:34:42;98799.31;;;16.20;80.02
11912;BME280;6016;41.928;25.556;2023-05-24T03:37:09;98674.72;;;15.48;79.77
11912;BME280;6016;41.928;25.556;2023-05-24T03:39:36;98832.00;;;16.43;79.36
11912;BME280;6016;41.928;25.556;2023-05-24T03:42:03;98746.72;;;15.92;79.86
11912;BME280;6016;41.928;25.556;2023-05-24T03:44:31;98834.28;;;16.47;79.75
11912;BME280;6016;41.928;25.556;2023-05-24T03:46:58;98756.28;;;16.01;79.53
11912;BME280;6016;41.928;25.556;2023-05-24T03:49:25;98761.88;;;16.06;78.53
11912;BME280;6016;41.928;25.556;2023-05-24T03:51:52;98831.16;;;16.43;78.88
11912;BME280;6016;41.928;25.556;2023-05-24T03:54:19;98847.22;;;16.65;78.85
11912;BME280;6016;41.928;25.556;2023-05-24T03:56:46;98825.91;;;16.50;78.98
11912;BME280;6016;41.928;25.556;2023-05-24T03:59:12;98856.94;;;16.72;79.53
11912;BME280;6016;41.928;25.556;2023-05-24T04:01:41;98772.25;;;16.16;79.46
11912;BME280;6016;41.928;25.556;2023-05-24T04:04:07;98832.34;;;16.25;80.17
11912;BME280;6016;41.928;25.556;2023-05-24T04:06:34;98841.59;;;16.59;80.14
11912;BME280;6016;41.928;25.556;2023-05-24T04:09:02;98794.44;;;16.38;79.86
11912;BME280;6016;41.928;25.556;2023-05-24T04:11:30;98854.97;;;16.81;79.92
11912;BME280;6016;41.928;25.556;2023-05-24T04:13:57;98855.81;;;16.82;80.06
11912;BME280;6016;41.928;25.556;2023-05-24T04:16:25;98862.41;;;16.86;80.50
11912;BME280;6016;41.928;25.556;2023-05-24T04:18:54;98853.25;;;16.88;80.94
11912;BME280;6016;41.928;25.556;2023-05-24T04:21:21;98862.66;;;16.91;80.16
11912;BME280;6016;41.928;25.556;2023-05-24T04:23:48;98855.13;;;16.95;80.76
11912;BME280;6016;41.928;25.556;2023-05-24T04:26:14;98861.94;;;16.97;81.57
11912;BME280;6016;41.928;25.556;2023-05-24T04:28:42;98818.06;;;16.78;81.59
11912;BME280;6016;41.928;25.556;2023-05-24T04:31:10;98833.75;;;16.88;81.05
11912;BME280;6016;41.928;25.556;2023-05-24T04:33:36;98785.25;;;16.56;81.16
11912;BME280;6016;41.928;25.556;2023-05-24T04:36:06;98859.91;;;17.14;81.20
11912;BME280;6016;41.928;25.556;2023-05-24T04:38:33;98857.66;;;17.18;80.96
11912;BME280;6016;41.928;25.556;2023-05-24T04:41:01;98810.84;;;16.94;80.79
11912;BME280;6016;41.928;25.556;2023-05-24T04:43:28;98866.19;;;17.28;81.01
11912;BME280;6016;41.928;25.556;2023-05-24T04:45:55;98858.47;;;17.34;81.57
11912;BME280;6016;41.928;25.556;2023-05-24T04:48:23;98857.06;;;17.38;81.86
11912;BME280;6016;41.928;25.556;2023-05-24T04:50:50;98620.06;;;15.91;81.47
11912;BME280;6016;41.928;25.556;2023-05-24T04:53:18;98861.25;;;17.47;82.13
11912;BME280;6016;41.928;25.556;2023-05-24T04:55:46;98869.72;;;17.51;81.53
11912;BME280;6016;41.928;25.556;2023-05-24T04:58:13;98590.06;;;15.82;81.48
11912;BME280;6016;41.928;25.556;2023-05-24T05:00:40;98829.38;;;17.39;82.54
11912;BME280;6016;41.928;25.556;2023-05-24T05:03:07;98866.72;;;17.61;82.94
11912;BME280;6016;41.928;25.556;2023-05-24T05:05:34;98852.03;;;17.50;82.89
11912;BME280;6016;41.928;25.556;2023-05-24T05:08:02;98815.25;;;17.38;82.37
11912;BME280;6016;41.928;25.556;2023-05-24T05:10:30;98811.09;;;17.36;82.14
11912;BME280;6016;41.928;25.556;2023-05-24T05:12:57;98863.53;;;17.72;82.29
11912;BME280;6016;41.928;25.556;2023-05-24T05:15:24;98867.28;;;17.78;82.48
11912;BME280;6016;41.928;25.556;2023-05-24T05:17:50;98848.09;;;17.67;83.63
11912;BME280;6016;41.928;25.556;2023-05-24T05:20:17;98870.41;;;17.88;83.58
11912;BME280;6016;41.928;25.556;2023-05-24T05:22:45;98876.81;;;17.94;83.27
11912;BME280;6016;41.928;25.556;2023-05-24T05:25:12;98875.22;;;17.99;83.40
11912;BME280;6016;41.928;25.556;2023-05-24T05:27:40;98882.50;;;18.06;83.34
11912;BME280;6016;41.928;25.556;2023-05-24T05:30:07;98880.06;;;18.11;82.86
11912;BME280;6016;41.928;25.556;2023-05-24T05:32:35;98881.97;;;18.17;83.12
11912;BME280;6016;41.928;25.556;2023-05-24T05:35:02;98878.91;;;18.20;83.31
11912;BME280;6016;41.928;25.556;2023-05-24T05:37:29;98880.41;;;18.30;83.12
11912;BME280;6016;41.928;25.556;2023-05-24T05:39:56;98812.38;;;17.90;83.09
11912;BME280;6016;41.928;25.556;2023-05-24T05:42:23;98887.88;;;18.41;82.27
11912;BME280;6016;41.928;25.556;2023-05-24T05:44:51;98885.22;;;18.41;81.17
11912;BME280;6016;41.928;25.556;2023-05-24T05:47:18;98893.63;;;18.45;79.71
11912;BME280;6016;41.928;25.556;2023-05-24T05:49:45;98889.31;;;18.44;79.36
11912;BME280;6016;41.928;25.556;2023-05-24T05:52:11;98887.66;;;18.42;79.16
11912;BME280;6016;41.928;25.556;2023-05-24T05:54:38;98886.84;;;18.42;79.48
11912;BME280;6016;41.928;25.556;2023-05-24T05:57:05;98745.41;;;17.56;80.04
11912;BME280;6016;41.928;25.556;2023-05-24T05:59:34;98817.81;;;18.04;78.45
11912;BME280;6016;41.928;25.556;2023-05-24T06:02:05;98865.44;;;18.35;78.66
11912;BME280;6016;41.928;25.556;2023-05-24T06:04:32;98906.03;;;18.52;76.91
11912;BME280;6016;41.928;25.556;2023-05-24T06:06:59;98883.44;;;18.26;76.65
11912;BME280;6016;41.928;25.556;2023-05-24T06:09:26;98899.25;;;18.56;77.53
11912;BME280;6016;41.928;25.556;2023-05-24T06:11:53;98900.50;;;18.61;78.34
11912;BME280;6016;41.928;25.556;2023-05-24T06:14:19;98837.22;;;18.19;78.10
11912;BME280;6016;41.928;25.556;2023-05-24T06:16:46;98825.91;;;18.17;77.21
11912;BME280;6016;41.928;25.556;2023-05-24T06:19:15;98907.97;;;18.72;77.53
11912;BME280;6016;41.928;25.556;2023-05-24T06:21:42;98903.69;;;18.78;77.86
11912;BME280;6016;41.928;25.556;2023-05-24T06:24:12;98910.09;;;18.83;77.86
11912;BME280;6016;41.928;25.556;2023-05-24T06:26:39;98797.38;;;18.24;78.18
11912;BME280;6016;41.928;25.556;2023-05-24T06:29:07;98920.84;;;18.97;77.48
11912;BME280;6016;41.928;25.556;2023-05-24T06:31:34;98756.69;;;18.16;76.19
11912;BME280;6016;41.928;25.556;2023-05-24T06:34:00;98855.78;;;18.83;75.45
11912;BME280;6016;41.928;25.556;2023-05-24T06:36:29;98773.03;;;18.41;75.78
11912;BME280;6016;41.928;25.556;2023-05-24T06:38:58;98816.06;;;18.66;75.19
11912;BME280;6016;41.928;25.556;2023-05-24T06:41:25;98891.53;;;19.17;73.81
11912;BME280;6016;41.928;25.556;2023-05-24T06:43:52;98877.03;;;18.98;74.01
11912;BME280;6016;41.928;25.556;2023-05-24T06:46:19;98863.75;;;19.11;74.79
11912;BME280;6016;41.928;25.556;2023-05-24T06:48:46;98885.00;;;19.33;73.77
11912;BME280;6016;41.928;25.556;2023-05-24T06:51:13;98889.94;;;19.43;74.56
11912;BME280;6016;41.928;25.556;2023-05-24T06:53:41;98875.75;;;19.36;74.04
11912;BME280;6016;41.928;25.556;2023-05-24T06:56:08;98858.44;;;19.38;74.02
11912;BME280;6016;41.928;25.556;2023-05-24T06:58:35;98787.19;;;18.97;73.78
11912;BME280;6016;41.928;25.556;2023-05-24T07:01:02;98885.47;;;19.71;74.16
11912;BME280;6016;41.928;25.556;2023-05-24T07:03:29;98884.44;;;19.72;73.66
11912;BME280;6016;41.928;25.556;2023-05-24T07:05:56;98838.50;;;19.48;73.53
11912;BME280;6016;41.928;25.556;2023-05-24T07:08:23;98884.63;;;19.90;72.73
11912;BME280;6016;41.928;25.556;2023-05-24T07:10:52;98760.72;;;19.22;71.60
11912;BME280;6016;41.928;25.556;2023-05-24T07:13:20;98871.91;;;19.92;71.49
11912;BME280;6016;41.928;25.556;2023-05-24T07:15:48;98835.63;;;19.83;71.00
11912;BME280;6016;41.928;25.556;2023-05-24T07:18:15;98802.28;;;19.52;70.95
11912;BME280;6016;41.928;25.556;2023-05-24T07:20:42;98874.16;;;20.22;69.03
11912;BME280;6016;41.928;25.556;2023-05-24T07:23:08;98865.06;;;20.23;69.92
11912;BME280;6016;41.928;25.556;2023-05-24T07:25:36;98873.06;;;20.44;70.83
11912;BME280;6016;41.928;25.556;2023-05-24T07:28:04;98879.22;;;20.58;70.81
11912;BME280;6016;41.928;25.556;2023-05-24T07:30:31;98875.25;;;20.74;70.98
11912;BME280;6016;41.928;25.556;2023-05-24T07:32:58;98879.16;;;20.85;69.68
11912;BME280;6016;41.928;25.556;2023-05-24T07:35:25;98879.09;;;20.98;69.89
11912;BME280;6016;41.928;25.556;2023-05-24T07:37:52;98833.38;;;20.86;69.64
11912;BME280;6016;41.928;25.556;2023-05-24T07:40:19;98893.16;;;21.32;66.63
11912;BME280;6016;41.928;25.556;2023-05-24T07:42:47;98883.81;;;21.42;66.93
11912;BME280;6016;41.928;25.556;2023-05-24T07:45:15;98889.13;;;21.48;66.75
11912;BME280;6016;41.928;25.556;2023-05-24T07:47:42;98882.41;;;21.64;65.24
11912;BME280;6016;41.928;25.556;2023-05-24T07:50:10;98495.97;;;19.36;67.25
11912;BME280;6016;41.928;25.556;2023-05-24T07:52:37;98888.78;;;22.02;66.03
11912;BME280;6016;41.928;25.556;2023-05-24T07:55:04;98846.28;;;21.92;65.98
11912;BME280;6016;41.928;25.556;2023-05-24T07:57:31;98849.53;;;22.01;66.67
11912;BME280;6016;41.928;25.556;2023-05-24T07:59:58;98840.81;;;22.06;65.38
11912;BME280;6016;41.928;25.556;2023-05-24T08:02:32;98885.97;;;22.34;65.10
11912;BME280;6016;41.928;25.556;2023-05-24T08:04:59;98836.69;;;22.03;62.77
11912;BME280;6016;41.928;25.556;2023-05-24T08:07:26;98827.00;;;21.77;65.20
11912;BME280;6016;41.928;25.556;2023-05-24T08:09:53;98888.75;;;22.46;63.64
11912;BME280;6016;41.928;25.556;2023-05-24T08:12:20;98844.16;;;22.20;62.06
11912;BME280;6016;41.928;25.556;2023-05-24T08:14:47;98740.44;;;21.56;65.85
11912;BME280;6016;41.928;25.556;2023-05-24T08:17:13;98889.44;;;22.42;63.44
11912;BME280;6016;41.928;25.556;2023-05-24T08:19:42;98872.72;;;22.58;64.27
11912;BME280;6016;41.928;25.556;2023-05-24T08:22:09;98887.00;;;22.77;65.69
11912;BME280;6016;41.928;25.556;2023-05-24T08:24:36;98880.72;;;22.84;62.60
11912;BME280;6016;41.928;25.556;2023-05-24T08:27:03;98706.63;;;21.74;62.83
11912;BME280;6016;41.928;25.556;2023-05-24T08:29:30;98892.13;;;22.98;62.64
11912;BME280;6016;41.928;25.556;2023-05-24T08:31:57;98891.44;;;23.02;64.50
11912;BME280;6016;41.928;25.556;2023-05-24T08:34:24;98892.41;;;23.08;65.44
11912;BME280;6016;41.928;25.556;2023-05-24T08:36:52;98894.97;;;23.03;63.03
11912;BME280;6016;41.928;25.556;2023-05-24T08:39:19;98864.59;;;22.84;61.43
11912;BME280;6016;41.928;25.556;2023-05-24T08:41:46;98864.88;;;22.75;65.10
11912;BME280;6016;41.928;25.556;2023-05-24T08:44:13;98832.16;;;22.79;62.66
11912;BME280;6016;41.928;25.556;2023-05-24T08:46:40;98900.59;;;23.32;61.33
11912;BME280;6016;41.928;25.556;2023-05-24T08:49:08;98903.31;;;23.44;61.98
11912;BME280;6016;41.928;25.556;2023-05-24T08:51:38;98891.47;;;23.33;62.48
11912;BME280;6016;41.928;25.556;2023-05-24T08:54:09;98904.81;;;23.58;62.87
11912;BME280;6016;41.928;25.556;2023-05-24T08:56:39;98879.00;;;23.51;61.97
11912;BME280;6016;41.928;25.556;2023-05-24T08:59:07;98891.00;;;23.67;61.32
11912;BME280;6016;41.928;25.556;2023-05-24T09:01:36;98899.78;;;23.74;62.81
11912;BME280;6016;41.928;25.556;2023-05-24T09:04:05;98729.59;;;22.75;63.17
11912;BME280;6016;41.928;25.556;2023-05-24T09:06:33;98759.81;;;22.89;62.22
11912;BME280;6016;41.928;25.556;2023-05-24T09:09:01;98899.50;;;24.06;62.83
11912;BME280;6016;41.928;25.556;2023-05-24T09:11:30;98865.25;;;23.83;60.60
11912;BME280;6016;41.928;25.556;2023-05-24T09:13:59;98907.13;;;24.09;59.11
11912;BME280;6016;41.928;25.556;2023-05-24T09:16:26;98911.94;;;24.19;57.86
11912;BME280;6016;41.928;25.556;2023-05-24T09:18:53;98913.81;;;24.30;57.70
11912;BME280;6016;41.928;25.556;2023-05-24T09:21:20;98887.09;;;24.41;61.06
11912;BME280;6016;41.928;25.556;2023-05-24T09:23:48;98811.06;;;24.15;58.98
11912;BME280;6016;41.928;25.556;2023-05-24T09:26:14;98901.75;;;25.10;59.73
11912;BME280;6016;41.928;25.556;2023-05-24T09:28:46;98771.94;;;24.53;57.57
11912;BME280;6016;41.928;25.556;2023-05-24T09:31:13;98721.41;;;24.49;56.46
11912;BME280;6016;41.928;25.556;2023-05-24T09:33:41;98895.47;;;25.84;54.88
11912;BME280;6016;41.928;25.556;2023-05-24T09:36:08;98891.81;;;26.08;55.36
11912;BME280;6016;41.928;25.556;2023-05-24T09:38:35;98898.91;;;26.31;56.75
11912;BME280;6016;41.928;25.556;2023-05-24T09:41:03;98821.59;;;25.96;54.17
11912;BME280;6016;41.928;25.556;2023-05-24T09:43:31;98839.38;;;26.26;54.07
11912;BME280;6016;41.928;25.556;2023-05-24T09:46:02;98897.81;;;26.72;52.55
11912;BME280;6016;41.928;25.556;2023-05-24T09:48:30;98890.84;;;26.76;55.78
11912;BME280;6016;41.928;25.556;2023-05-24T09:51:03;98892.88;;;26.63;53.51
11912;BME280;6016;41.928;25.556;2023-05-24T09:53:31;98894.19;;;26.61;51.01
11912;BME280;6016;41.928;25.556;2023-05-24T09:55:59;98884.97;;;26.39;53.23
11912;BME280;6016;41.928;25.556;2023-05-24T09:58:28;98873.63;;;26.20;53.05
11912;BME280;6016;41.928;25.556;2023-05-24T10:01:04;98889.03;;;26.20;50.83
11912;BME280;6016;41.928;25.556;2023-05-24T10:03:32;98880.16;;;26.07;53.80
11912;BME280;6016;41.928;25.556;2023-05-24T10:05:59;98871.00;;;25.91;56.13
11912;BME280;6016;41.928;25.556;2023-05-24T10:08:29;98847.91;;;25.83;51.94
11912;BME280;6016;41.928;25.556;2023-05-24T10:10:57;98856.25;;;25.99;52.69
11912;BME280;6016;41.928;25.556;2023-05-24T10:13:25;98733.78;;;25.08;54.45
11912;BME280;6016;41.928;25.556;2023-05-24T10:15:52;98846.69;;;25.74;53.92
11912;BME280;6016;41.928;25.556;2023-05-24T10:18:21;98741.47;;;24.99;53.22
11912;BME280;6016;41.928;25.556;2023-05-24T10:20:49;98819.13;;;25.55;55.00
11912;BME280;6016;41.928;25.556;2023-05-24T10:23:19;98877.00;;;25.76;52.77
11912;BME280;6016;41.928;25.556;2023-05-24T10:25:50;98884.59;;;25.79;52.25
11912;BME280;6016;41.928;25.556;2023-05-24T10:28:19;98851.84;;;25.59;50.75
11912;BME280;6016;41.928;25.556;2023-05-24T10:30:56;98777.44;;;24.88;53.50
11912;BME280;6016;41.928;25.556;2023-05-24T10:33:28;98878.53;;;25.72;54.66
11912;BME280;6016;41.928;25.556;2023-05-24T10:35:57;98870.91;;;25.69;54.07
11912;BME280;6016;41.928;25.556;2023-05-24T10:38:24;98867.72;;;25.89;53.54
11912;BME280;6016;41.928;25.556;2023-05-24T10:40:51;98855.53;;;25.69;53.59
11912;BME280;6016;41.928;25.556;2023-05-24T10:43:17;98855.03;;;25.55;52.34
11912;BME280;6016;41.928;25.556;2023-05-24T10:45:48;98871.91;;;25.34;51.05
11912;BME280;6016;41.928;25.556;2023-05-24T10:48:36;98813.66;;;25.21;53.80
11912;BME280;6016;41.928;25.556;2023-05-24T10:51:34;98860.38;;;25.50;50.97
11912;BME280;6016;41.928;25.556;2023-05-24T10:54:18;98846.03;;;25.50;50.06
11912;BME280;6016;41.928;25.556;2023-05-24T10:56:47;98830.16;;;25.53;51.47
11912;BME280;6016;41.928;25.556;2023-05-24T10:59:28;98760.72;;;25.20;55.00
11912;BME280;6016;41.928;25.556;2023-05-24T11:01:56;98840.97;;;25.88;53.11
11912;BME280;6016;41.928;25.556;2023-05-24T11:04:25;98837.09;;;26.01;50.89
11912;BME280;6016;41.928;25.556;2023-05-24T11:06:54;98834.34;;;26.18;49.94
11912;BME280;6016;41.928;25.556;2023-05-24T11:09:23;98814.72;;;26.05;49.11
11912;BME280;6016;41.928;25.556;2023-05-24T11:11:54;98838.72;;;26.41;48.24
11912;BME280;6016;41.928;25.556;2023-05-24T11:14:23;98836.44;;;26.50;50.90
11912;BME280;6016;41.928;25.556;2023-05-24T11:16:50;98835.97;;;26.36;53.09
11912;BME280;6016;41.928;25.556;2023-05-24T11:19:18;98810.03;;;26.40;50.62
11912;BME280;6016;41.928;25.556;2023-05-24T11:21:47;98830.44;;;26.70;49.10
11912;BME280;6016;41.928;25.556;2023-05-24T11:24:15;98814.25;;;26.75;48.86
11912;BME280;6016;41.928;25.556;2023-05-24T11:26:43;98822.00;;;26.66;50.50
11912;BME280;6016;41.928;25.556;2023-05-24T11:29:12;98764.56;;;26.15;48.72
11912;BME280;6016;41.928;25.556;2023-05-24T11:31:46;98765.72;;;26.19;50.62
11912;BME280;6016;41.928;25.556;2023-05-24T11:34:13;98799.16;;;26.57;48.65
11912;BME280;6016;41.928;25.556;2023-05-24T11:36:41;98828.06;;;26.74;50.89
11912;BME280;6016;41.928;25.556;2023-05-24T11:39:09;98662.22;;;25.79;52.58
11912;BME280;6016;41.928;25.556;2023-05-24T11:41:37;98698.78;;;26.09;48.97
11912;BME280;6016;41.928;25.556;2023-05-24T11:44:05;98782.84;;;26.74;47.92
11912;BME280;6016;41.928;25.556;2023-05-24T11:46:32;98810.00;;;27.07;48.60
11912;BME280;6016;41.928;25.556;2023-05-24T11:49:00;98813.38;;;27.19;48.77
11912;BME280;6016;41.928;25.556;2023-05-24T11:51:28;98774.88;;;27.12;50.78
11912;BME280;6016;41.928;25.556;2023-05-24T11:53:55;98643.44;;;26.39;49.21
11912;BME280;6016;41.928;25.556;2023-05-24T11:56:24;98783.75;;;27.07;45.70
11912;BME280;6016;41.928;25.556;2023-05-24T11:59:08;98787.56;;;27.12;46.00
11912;BME280;6016;41.928;25.556;2023-05-24T12:01:35;98767.22;;;27.09;44.86
11912;BME280;6016;41.928;25.556;2023-05-24T12:04:04;98777.59;;;27.17;44.11
11912;BME280;6016;41.928;25.556;2023-05-24T12:06:39;98634.97;;;26.30;47.50
11912;BME280;6016;41.928;25.556;2023-05-24T12:09:06;98794.59;;;27.40;49.66
11912;BME280;6016;41.928;25.556;2023-05-24T12:11:38;98771.13;;;27.18;44.77
11912;BME280;6016;41.928;25.556;2023-05-24T12:14:07;98726.19;;;26.90;46.82
11912;BME280;6016;41.928;25.556;2023-05-24T12:16:36;98774.06;;;27.17;49.19
11912;BME280;6016;41.928;25.556;2023-05-24T12:19:04;98789.41;;;27.38;47.97
11912;BME280;6016;41.928;25.556;2023-05-24T12:21:31;98788.09;;;27.41;50.46
11912;BME280;6016;41.928;25.556;2023-05-24T12:24:09;98789.88;;;26.98;49.08
11912;BME280;6016;41.928;25.556;2023-05-24T12:26:39;98803.13;;;26.49;47.94
11912;BME280;6016;41.928;25.556;2023-05-24T12:29:08;98701.94;;;25.78;49.69
11912;BME280;6016;41.928;25.556;2023-05-24T12:31:36;98769.34;;;25.90;46.71
11912;BME280;6016;41.928;25.556;2023-05-24T12:34:03;98785.88;;;25.72;47.05
11912;BME280;6016;41.928;25.556;2023-05-24T12:36:31;98759.88;;;25.19;48.09
11912;BME280;6016;41.928;25.556;2023-05-24T12:38:59;98736.16;;;24.75;47.80
11912;BME280;6016;41.928;25.556;2023-05-24T12:41:29;98685.72;;;24.29;48.04
11912;BME280;6016;41.928;25.556;2023-05-24T12:43:58;98811.50;;;24.65;50.64
11912;BME280;6016;41.928;25.556;2023-05-24T12:46:25;98757.59;;;24.00;48.91
11912;BME280;6016;41.928;25.556;2023-05-24T12:48:52;98626.50;;;23.17;50.34
11912;BME280;6016;41.928;25.556;2023-05-24T12:51:19;98818.66;;;24.18;50.10
11912;BME280;6016;41.928;25.556;2023-05-24T12:53:46;98797.66;;;23.96;49.55
11912;BME280;6016;41.928;25.556;2023-05-24T12:56:13;98795.44;;;23.81;51.98
11912;BME280;6016;41.928;25.556;2023-05-24T12:58:40;98762.41;;;23.62;51.62
11912;BME280;6016;41.928;25.556;2023-05-24T13:01:08;98797.91;;;23.71;51.22
11912;BME280;6016;41.928;25.556;2023-05-24T13:03:35;98772.72;;;23.53;54.60
11912;BME280;6016;41.928;25.556;2023-05-24T13:06:04;98771.78;;;23.36;52.21